Time;durP1;ratioP1;P1;durP2;ratioP2;P2;SDS_P1;SDS_P2;PMS_P1;PMS_P2;Temp;Humidity;BMP_temperature;BMP_pressure;BME280_temperature;BME280_humidity;BME280_pressure;Samples;Min_cycle;Max_cycle;Signal;HPM_P1;HPM_P2
2022/02/02 00:01:47;;;;;;;8.30;4.75;;;;;;;;;;1671489;84;22301;-58
2022/02/02 00:04:05;;;;;;;9.33;5.08;;;;;;;;;;1672726;82;22030;-58
2022/02/02 00:06:39;;;;;;;10.20;5.08;;;;;;;;;;1684889;83;20931;-58
2022/02/02 00:09:05;;;;;;;9.18;5.17;;;;;;;;;;1685420;83;21510;-57
2022/02/02 00:16:53;;;;;;;6.10;4.15;;;;;;;;;;1670255;85;20967;-57
2022/02/02 00:21:55;;;;;;;9.35;5.03;;;;;;;;;;1664074;84;21397;-57
2022/02/02 00:24:29;;;;;;;7.62;4.70;;;;;;;;;;1685990;84;21341;-56
2022/02/02 00:26:53;;;;;;;7.15;4.72;;;;;;;;;;1671325;83;22372;-57
2022/02/02 00:29:21;;;;;;;7.75;4.08;;;;;;;;;;1670065;83;21321;-57
2022/02/02 00:31:56;;;;;;;8.60;4.65;;;;;;;;;;1679687;84;21491;-56
2022/02/02 00:34:19;;;;;;;8.15;5.22;;;;;;;;;;1679269;84;21459;-56
2022/02/02 00:36:50;;;;;;;7.08;4.40;;;;;;;;;;1671159;84;21403;-56
2022/02/02 00:39:13;;;;;;;7.87;4.62;;;;;;;;;;1680506;83;22367;-56
2022/02/02 00:41:40;;;;;;;7.05;4.22;;;;;;;;;;1690129;84;21367;-57
2022/02/02 00:44:07;;;;;;;6.10;4.30;;;;;;;;;;1681530;83;21103;-57
2022/02/02 00:46:35;;;;;;;6.00;4.25;;;;;;;;;;1682970;83;21456;-57
2022/02/02 00:49:02;;;;;;;5.35;4.10;;;;;;;;;;1671299;84;21489;-56
2022/02/02 00:51:36;;;;;;;6.00;4.17;;;;;;;;;;1677385;83;22507;-56
2022/02/02 00:53:57;;;;;;;7.50;4.22;;;;;;;;;;1673633;84;21594;-56
2022/02/02 00:56:23;;;;;;;9.20;4.62;;;;;;;;;;1680280;83;21475;-56
2022/02/02 00:58:50;;;;;;;9.63;4.45;;;;;;;;;;1676206;83;21436;-56
2022/02/02 01:01:16;;;;;;;6.90;4.47;;;;;;;;;;1677246;84;21078;-56
2022/02/02 01:03:43;;;;;;;6.80;4.20;;;;;;;;;;1678273;83;22246;-57
2022/02/02 01:06:13;;;;;;;7.47;3.90;;;;;;;;;;1669467;83;21462;-56
2022/02/02 01:19:29;;;;;;;8.38;4.37;;;;;;;;;;1672618;83;21442;-56
2022/02/02 01:30:02;;;;;;;7.65;4.17;;;;;;;;;;1683122;83;22332;-57
2022/02/02 01:32:29;;;;;;;9.73;4.92;;;;;;;;;;1734779;80;21356;-56
2022/02/02 01:34:55;;;;;;;6.60;4.40;;;;;;;;;;1739672;80;21553;-56
2022/02/02 01:37:22;;;;;;;7.65;5.33;;;;;;;;;;1721813;80;21361;-56
2022/02/02 01:39:55;;;;;;;7.92;4.72;;;;;;;;;;1723306;80;21356;-56
2022/02/02 01:42:18;;;;;;;9.48;4.45;;;;;;;;;;1731078;80;22373;-56
2022/02/02 01:44:59;;;;;;;10.78;4.20;;;;;;;;;;1732023;80;20874;-56
2022/02/02 01:47:18;;;;;;;12.43;4.67;;;;;;;;;;1719611;81;21475;-56
2022/02/02 01:50:10;;;;;;;10.15;4.62;;;;;;;;;;1710319;81;21463;-56
2022/02/02 01:55:05;;;;;;;7.17;4.58;;;;;;;;;;1714466;81;22458;-55
2022/02/02 02:00:07;;;;;;;;;;;;;;;;;;1718297;81;21723;-56
2022/02/02 02:02:35;;;;;;;7.83;4.47;;;;;;;;;;1709580;81;20650;-57
2022/02/02 02:05:02;;;;;;;11.38;4.50;;;;;;;;;;1729190;81;21428;-57
2022/02/02 02:07:29;;;;;;;8.25;4.15;;;;;;;;;;1724781;80;22327;-56
2022/02/02 02:09:58;;;;;;;6.97;4.30;;;;;;;;;;1729575;80;21489;-56
2022/02/02 02:12:25;;;;;;;6.12;3.95;;;;;;;;;;1716060;81;21555;-57
2022/02/02 02:14:56;;;;;;;7.35;4.10;;;;;;;;;;1720120;81;21376;-57
2022/02/02 02:17:22;;;;;;;6.50;4.22;;;;;;;;;;1716350;81;21492;-57
2022/02/02 02:19:50;;;;;;;8.10;4.37;;;;;;;;;;1730657;81;22491;-56
2022/02/02 02:22:20;;;;;;;8.05;4.17;;;;;;;;;;1726390;82;21416;-56
2022/02/02 02:24:47;;;;;;;6.08;3.90;;;;;;;;;;1729721;81;21436;-57
2022/02/02 02:27:17;;;;;;;8.78;4.30;;;;;;;;;;1717990;81;21467;-56
2022/02/02 02:35:13;;;;;;;7.78;4.05;;;;;;;;;;1730034;81;21491;-57
2022/02/02 02:56:07;;;;;;;6.85;4.45;;;;;;;;;;1745663;80;21493;-56
2022/02/02 02:58:46;;;;;;;10.60;5.22;;;;;;;;;;1731519;80;22511;-56
2022/02/02 03:31:31;;;;;;;9.18;4.78;;;;;;;;;;1734695;80;21518;-56
2022/02/02 03:58:19;;;;;;;9.40;4.85;;;;;;;;;;1717174;81;21535;-58
2022/02/02 04:00:57;;;;;;;8.18;4.92;;;;;;;;;;1714752;81;21534;-55
2022/02/02 04:05:42;;;;;;;9.23;4.72;;;;;;;;;;1725612;81;22601;-56
2022/02/02 04:08:28;;;;;;;10.43;5.00;;;;;;;;;;1717511;81;21520;-57
2022/02/02 04:10:50;;;;;;;9.33;5.33;;;;;;;;;;1719351;81;21402;-57
2022/02/02 04:54:25;;;;;;;18.37;9.75;;;;;;;;;;1708820;81;20871;-55
2022/02/02 04:59:43;;;;;;;23.42;12.47;;;;;;;;;;1731751;81;22583;-56
2022/02/02 05:09:51;;;;;;;12.78;7.20;;;;;;;;;;1680050;82;21468;-56
2022/02/02 05:20:39;;;;;;;10.72;4.60;;;;;;;;;;1728269;80;21574;-55
2022/02/02 05:44:33;;;;;;;8.78;4.62;;;;;;;;;;1718008;81;21470;-57
2022/02/02 05:49:51;;;;;;;6.85;3.92;;;;;;;;;;1740088;80;21531;-56
2022/02/02 05:52:02;;;;;;;7.78;4.08;;;;;;;;;;1738745;80;22719;-56
2022/02/02 05:54:28;;;;;;;9.90;3.92;;;;;;;;;;1743194;81;21399;-56
2022/02/02 05:56:54;;;;;;;6.65;3.98;;;;;;;;;;1725857;80;20910;-56
2022/02/02 06:01:41;;;;;;;10.10;4.58;;;;;;;1.99;73.70;98538.58;1778622;78;23334;-57
2022/02/02 06:04:08;;;;;;;12.88;5.70;;;;;;;3.36;65.85;98530.35;1731416;80;21440;-56
2022/02/02 06:06:34;;;;;;;9.25;4.90;;;;;;;3.47;65.02;98531.33;1740814;80;22338;-57
2022/02/02 06:09:01;;;;;;;10.43;5.85;;;;;;;3.47;64.65;98533.47;1746746;80;21487;-56
2022/02/02 06:11:28;;;;;;;7.33;5.50;;;;;;;3.46;65.12;98534.80;1741978;80;21553;-57
2022/02/02 06:13:58;;;;;;;14.55;8.08;;;;;;;3.52;64.94;98532.00;1725934;80;21587;-57
2022/02/02 06:16:27;;;;;;;21.40;11.63;;;;;;;3.54;65.44;98534.10;1721214;80;21438;-57
2022/02/02 06:18:55;;;;;;;19.98;10.90;;;;;;;3.64;65.65;98525.58;1742135;80;22292;-57
2022/02/02 06:21:24;;;;;;;24.77;13.08;;;;;;;3.74;66.37;98528.27;1731669;80;21450;-56
2022/02/02 06:23:57;;;;;;;28.38;13.93;;;;;;;3.80;65.62;98528.06;1730393;80;21449;-57
2022/02/02 06:26:24;;;;;;;23.22;11.50;;;;;;;3.88;65.31;98526.50;1737484;80;20889;-57
2022/02/02 06:28:51;;;;;;;30.80;14.47;;;;;;;3.95;65.10;98520.66;1735037;80;21498;-56
2022/02/02 06:31:17;;;;;;;29.55;13.20;;;;;;;3.99;65.81;98520.48;1703935;81;22386;-57
2022/02/02 06:33:44;;;;;;;27.10;11.75;;;;;;;4.06;64.83;98519.84;1728812;80;20957;-57
2022/02/02 06:36:11;;;;;;;24.45;9.98;;;;;;;4.13;65.26;98518.73;1736748;80;20893;-58
2022/02/02 06:38:42;;;;;;;22.42;9.73;;;;;;;4.17;64.16;98516.88;1738795;80;21719;-57
2022/02/02 06:41:09;;;;;;;17.10;8.55;;;;;;;4.18;64.01;98522.03;1736780;80;21419;-55
2022/02/02 06:43:36;;;;;;;16.27;7.37;;;;;;;4.27;65.22;98524.29;1728995;80;22545;-56
2022/02/02 06:46:03;;;;;;;11.67;6.67;;;;;;;4.34;65.00;98524.09;1735032;80;20969;-55
2022/02/02 06:48:32;;;;;;;11.53;6.03;;;;;;;4.40;65.49;98519.97;1732707;80;21551;-56
2022/02/02 06:51:10;;;;;;;10.40;5.42;;;;;;;4.42;64.10;98524.66;1735544;80;21454;-56
2022/02/02 06:53:43;;;;;;;13.28;5.10;;;;;;;4.48;65.08;98520.53;1747921;80;21494;-57
2022/02/02 07:04:42;;;;;;;11.40;6.20;;;;;;;5.04;65.00;98524.55;1730989;80;21394;-58
2022/02/02 07:07:10;;;;;;;9.75;5.55;;;;;;;5.10;64.79;98519.10;1731139;80;21481;-56
2022/02/02 07:12:19;;;;;;;17.07;8.60;;;;;;;5.39;64.66;98520.58;1735016;80;21949;-56
2022/02/02 07:14:56;;;;;;;25.72;11.30;;;;;;;5.53;64.73;98523.09;1733577;80;21543;-56
2022/02/02 07:20:04;;;;;;;21.62;9.00;;;;;;;5.74;63.23;98515.69;1737190;80;21595;-56
2022/02/02 07:22:27;;;;;;;14.78;6.75;;;;;;;5.86;63.86;98511.75;1729431;80;23113;-57
2022/02/02 07:32:32;;;;;;;11.68;5.78;;;;;;;6.16;63.87;98512.68;1735877;80;21495;-57
2022/02/02 07:35:45;;;;;;;10.90;5.47;;;;;;;6.31;65.06;98511.17;1731188;80;22679;-57
2022/02/02 07:37:50;;;;;;;16.10;6.20;;;;;;;6.43;63.81;98511.49;1714299;80;21645;-57
2022/02/02 07:40:17;;;;;;;10.88;5.65;;;;;;;6.55;63.88;98516.63;1730884;81;21403;-57
2022/02/02 07:42:49;;;;;;;9.23;5.55;;;;;;;6.51;61.06;98517.68;1726038;80;28784;-57
2022/02/02 07:45:18;;;;;;;11.93;6.03;;;;;;;6.57;64.35;98516.56;1728045;80;21603;-57
2022/02/02 07:47:50;;;;;;;12.43;5.90;;;;;;;6.54;63.12;98515.41;1734201;80;21530;-56
2022/02/02 07:50:18;;;;;;;14.20;6.28;;;;;;;6.52;64.30;98514.16;1720262;80;21412;-57
2022/02/02 07:52:45;;;;;;;10.93;5.55;;;;;;;6.56;63.32;98509.66;1730727;80;21507;-58
2022/02/02 07:55:14;;;;;;;10.30;5.47;;;;;;;6.59;62.97;98512.98;1724304;80;21882;-57
2022/02/02 07:57:41;;;;;;;11.88;5.25;;;;;;;6.68;63.92;98510.87;1741691;79;21062;-58
2022/02/02 08:00:16;;;;;;;11.45;6.85;;;;;;;6.74;64.02;98507.97;1734148;80;22550;-58
2022/02/02 08:03:07;;;;;;;11.83;5.50;;;;;;;6.85;64.35;98509.63;1725503;81;21466;-58
2022/02/02 08:05:33;;;;;;;12.68;5.65;;;;;;;6.92;62.11;98506.30;1726435;80;21514;-58
2022/02/02 08:10:47;;;;;;;14.83;6.58;;;;;;;7.05;63.20;98502.20;1717055;81;21480;-56
2022/02/02 08:13:21;;;;;;;17.20;9.15;;;;;;;7.10;64.28;98506.76;1718664;81;22338;-56
2022/02/02 08:15:45;;;;;;;20.55;8.93;;;;;;;7.13;63.14;98493.99;1717224;82;21540;-57
2022/02/02 08:18:11;;;;;;;23.33;9.83;;;;;;;7.15;63.43;98502.14;1707865;80;21471;-56
2022/02/02 08:20:38;;;;;;;19.20;9.37;;;;;;;7.16;62.91;98509.55;1729878;81;21534;-57
2022/02/02 08:23:04;;;;;;;14.10;7.40;;;;;;;7.33;64.01;98499.13;1720279;81;21441;-57
2022/02/02 08:25:32;;;;;;;11.73;7.17;;;;;;;7.59;64.87;98500.92;1725851;81;22353;-57
2022/02/02 08:28:01;;;;;;;13.85;6.83;;;;;;;7.74;63.42;98500.20;1727201;81;21466;-59
2022/02/02 08:30:29;;;;;;;11.05;6.15;;;;;;;7.95;65.02;98496.12;1709826;82;21513;-58
2022/02/02 08:33:00;;;;;;;12.45;7.03;;;;;;;8.10;64.47;98495.34;1723702;80;27723;-59
2022/02/02 08:35:33;;;;;;;14.33;8.10;;;;;;;8.19;63.38;98493.57;1721017;80;21491;-58
2022/02/02 08:38:34;;;;;;;18.85;9.10;;;;;;;8.44;64.94;98492.33;1718028;80;22760;-57
2022/02/02 08:40:55;;;;;;;16.83;8.77;;;;;;;8.50;62.61;98492.47;1719655;81;21702;-58
2022/02/02 08:43:32;;;;;;;20.37;10.70;;;;;;;8.61;64.86;98487.95;1729098;80;21558;-58
2022/02/02 08:46:04;;;;;;;21.07;8.25;;;;;;;8.76;64.78;98489.78;1725465;81;21454;-58
2022/02/02 08:48:26;;;;;;;15.13;9.03;;;;;;;8.92;64.16;98484.06;1724388;81;21492;-57
2022/02/02 08:50:56;;;;;;;14.87;7.58;;;;;;;9.08;63.87;98472.73;1717487;80;22360;-58
2022/02/02 09:01:01;;;;;;;22.67;10.93;;;;;;;9.39;64.21;98473.19;1726969;81;21556;-60
2022/02/02 09:06:15;;;;;;;19.92;9.95;;;;;;;9.48;65.34;98473.14;1681519;83;20957;-57
2022/02/02 09:08:44;;;;;;;17.40;9.85;;;;;;;9.53;63.46;98477.64;1676430;84;21501;-58
2022/02/02 09:25:02;;;;;;;16.48;9.63;;;;;;;9.54;63.88;98449.16;1652192;84;21481;-60
2022/02/02 09:35:08;;;;;;;21.20;10.82;;;;;;;10.14;63.75;98441.23;1686106;84;21495;-60
2022/02/02 09:37:35;;;;;;;21.30;11.60;;;;;;;10.17;64.04;98435.42;1684230;84;21433;-60
2022/02/02 09:40:29;;;;;;;20.52;11.95;;;;;;;10.23;64.12;98423.25;1691411;83;21502;-60
2022/02/02 09:42:34;;;;;;;24.92;12.65;;;;;;;10.22;62.60;98417.13;1680318;82;22315;-59
2022/02/02 09:45:07;;;;;;;21.80;11.45;;;;;;;10.22;63.39;98410.56;1673586;83;20989;-58
2022/02/02 09:47:40;;;;;;;19.80;10.63;;;;;;;10.27;63.03;98405.05;1676500;84;21466;-60
2022/02/02 09:50:04;;;;;;;22.80;11.83;;;;;;;10.30;63.29;98400.90;1637369;84;21458;-60
2022/02/02 09:52:33;;;;;;;26.62;11.93;;;;;;;10.37;62.97;98398.30;1669917;84;21527;-59
2022/02/02 09:55:13;;;;;;;31.82;15.90;;;;;;;10.42;61.72;98395.41;1682654;82;22644;-61
2022/02/02 10:06:15;;;;;;;17.52;9.13;;;;;;;10.36;62.06;98388.75;1676865;84;21419;-60
2022/02/02 10:08:54;;;;;;;19.25;10.40;;;;;;;10.38;62.80;98383.38;1679609;83;22440;-59
2022/02/02 10:12:31;;;;;;;24.23;12.75;;;;;;;10.41;62.56;98384.03;1677254;84;21516;-61
2022/02/02 10:14:23;;;;;;;21.07;11.40;;;;;;;10.36;61.45;98378.69;1679073;83;21534;-59
2022/02/02 10:16:50;;;;;;;16.32;9.95;;;;;;;10.36;62.04;98382.63;1686242;83;21375;-58
2022/02/02 10:19:20;;;;;;;16.70;9.90;;;;;;;10.37;61.69;98385.17;1680875;84;21467;-59
2022/02/02 10:21:47;;;;;;;16.35;8.25;;;;;;;10.25;61.81;98373.61;1677568;83;22628;-59
2022/02/02 10:24:13;;;;;;;16.32;9.00;;;;;;;10.31;62.55;98385.56;1672690;84;21404;-59
2022/02/02 10:26:44;;;;;;;15.60;8.30;;;;;;;10.37;63.22;98378.59;1682663;83;21480;-60
2022/02/02 10:29:15;;;;;;;16.45;10.28;;;;;;;10.42;62.01;98371.28;1642503;84;21400;-60
2022/02/02 10:31:46;;;;;;;20.43;12.78;;;;;;;10.48;61.35;98365.64;1684959;84;21568;-60
2022/02/02 10:34:17;;;;;;;18.85;9.45;;;;;;;10.62;62.48;98366.55;1685310;83;22313;-59
2022/02/02 10:36:44;;;;;;;34.27;31.07;;;;;;;10.80;62.56;98363.23;1681025;83;21387;-59
2022/02/02 10:39:17;;;;;;;20.30;12.65;;;;;;;10.90;62.78;98355.95;1674752;84;21503;-59
2022/02/02 10:41:57;;;;;;;11.78;8.68;;;;;;;10.96;61.21;98350.77;1681419;84;21571;-59
2022/02/02 10:44:26;;;;;;;23.38;13.85;;;;;;;11.00;61.30;98339.58;1677488;84;21396;-60
2022/02/02 10:47:09;;;;;;;14.38;8.53;;;;;;;11.14;60.18;98347.90;1690959;84;22648;-60
2022/02/02 10:49:41;;;;;;;67.05;35.00;;;;;;;11.11;60.27;98347.61;1687341;83;21476;-60
2022/02/02 10:55:12;;;;;;;15.13;8.80;;;;;;;10.84;59.96;98341.05;1680640;84;21582;-59
2022/02/02 10:57:33;;;;;;;18.40;10.20;;;;;;;10.83;60.24;98331.02;1637403;86;21467;-60
2022/02/02 11:07:44;;;;;;;18.10;9.23;;;;;;;11.05;60.41;98322.55;1674727;82;21451;-59
2022/02/02 11:10:13;;;;;;;15.00;8.57;;;;;;;11.17;60.73;98322.23;1684293;83;21482;-59
2022/02/02 11:12:40;;;;;;;13.55;7.67;;;;;;;11.16;59.45;98315.27;1652765;84;22351;-59
2022/02/02 11:15:19;;;;;;;12.80;7.10;;;;;;;11.17;60.37;98310.39;1653712;84;21582;-59
2022/02/02 11:18:19;;;;;;;17.37;10.00;;;;;;;11.23;61.10;98311.30;1643720;84;21542;-59
2022/02/02 11:20:45;;;;;;;13.00;7.40;;;;;;;11.29;60.65;98304.78;1643453;84;21425;-59
2022/02/02 11:23:12;;;;;;;13.60;7.65;;;;;;;11.29;60.50;98306.93;1646245;85;21535;-59
2022/02/02 11:25:40;;;;;;;15.68;9.75;;;;;;;11.28;60.70;98305.27;1690591;84;22558;-59
2022/02/02 11:28:27;;;;;;;21.97;11.60;;;;;;;11.28;61.33;98305.27;1644469;85;21645;-60
2022/02/02 11:31:02;;;;;;;15.38;7.78;;;;;;;11.33;60.86;98294.89;1678882;83;21514;-60
2022/02/02 11:33:29;;;;;;;14.78;7.40;;;;;;;11.25;60.74;98292.30;1631889;85;21444;-59
2022/02/02 11:35:58;;;;;;;16.20;7.22;;;;;;;11.27;60.37;98289.58;1648319;85;20942;-59
2022/02/02 11:38:37;;;;;;;14.00;8.50;;;;;;;11.27;60.75;98290.41;1682788;83;22537;-59
2022/02/02 11:41:26;;;;;;;16.55;8.53;;;;;;;11.32;60.34;98292.75;1657773;85;21446;-59
2022/02/02 11:44:08;;;;;;;16.70;7.97;;;;;;;11.22;59.67;98289.86;1664874;85;21082;-59
2022/02/02 11:47:29;;;;;;;13.68;7.22;;;;;;;11.27;60.42;98289.09;1661261;84;21507;-59
2022/02/02 11:49:31;;;;;;;17.60;9.00;;;;;;;11.35;60.71;98285.94;1653153;85;21395;-59
2022/02/02 11:52:02;;;;;;;16.10;8.45;;;;;;;11.53;62.88;98286.95;1670586;84;22670;-62
2022/02/02 11:54:44;;;;;;;17.07;7.92;;;;;;;11.55;60.63;98289.03;1668460;84;21454;-57
2022/02/02 11:59:58;;;;;;;25.30;12.93;;;;;;;11.81;60.37;98272.72;1673351;83;21344;-59
2022/02/02 12:08:26;;;;;;;13.83;7.70;;;;;;;11.99;59.58;98268.84;1662689;85;20710;-59
2022/02/02 12:36:01;;;;;;;19.10;8.45;;;;;;;11.07;60.82;98285.63;1662628;83;21491;-59
2022/02/02 12:55:33;;;;;;;12.65;6.30;;;;;;;10.82;57.82;98295.62;1672172;83;21718;-59
2022/02/02 12:57:10;;;;;;;14.18;7.12;;;;;;;10.72;58.63;98300.63;1663297;85;21542;-60
2022/02/02 12:59:55;;;;;;;10.40;6.42;;;;;;;10.71;58.76;98298.94;1670630;85;22360;-60
2022/02/02 13:02:15;;;;;;;13.03;8.35;;;;;;;10.66;58.65;98298.38;1656667;84;21528;-60
2022/02/02 13:04:49;;;;;;;12.88;6.55;;;;;;;10.59;59.00;98305.83;1668944;84;21560;-58
2022/02/02 13:07:18;;;;;;;12.63;6.35;;;;;;;10.63;59.87;98302.06;1693459;83;21491;-57
2022/02/02 13:09:48;;;;;;;11.25;6.25;;;;;;;10.75;60.67;98303.52;1694205;83;21522;-58
2022/02/02 13:12:22;;;;;;;14.75;6.83;;;;;;;10.79;59.78;98306.32;1695774;83;22293;-59
2022/02/02 13:17:44;;;;;;;12.98;6.92;;;;;;;10.73;58.95;98319.39;1655840;85;21497;-58
2022/02/02 13:20:13;;;;;;;18.95;8.08;;;;;;;10.81;59.89;98328.96;1662878;84;21543;-58
2022/02/02 13:22:40;;;;;;;17.17;8.43;;;;;;;10.86;60.23;98328.65;1665199;85;21592;-59
2022/02/02 13:25:25;;;;;;;;;;;;;;;10.80;59.22;98332.52;1663199;85;22218;-58
2022/02/02 13:27:51;;;;;;;20.90;11.85;;;;;;;10.85;59.94;98322.55;1667123;85;20746;-59
2022/02/02 13:30:41;;;;;;;16.67;8.25;;;;;;;10.84;59.79;98324.80;1660282;85;21525;-60
2022/02/02 13:33:11;;;;;;;13.53;8.28;;;;;;;10.72;58.15;98329.55;1658858;85;21067;-59
2022/02/02 13:35:48;;;;;;;18.12;10.95;;;;;;;10.72;60.26;98332.18;1663565;85;21496;-60
2022/02/02 13:38:20;;;;;;;17.23;9.98;;;;;;;10.67;60.35;98325.89;1660957;84;22377;-61
2022/02/02 13:48:41;;;;;;;15.95;9.53;;;;;;;10.47;59.83;98339.00;1658850;85;20957;-60
2022/02/02 14:04:36;;;;;;;18.52;11.05;;;;;;;10.52;59.48;98340.84;1660197;85;22421;-60
2022/02/02 14:09:37;;;;;;;18.35;10.82;;;;;;;10.37;60.47;98337.88;1661475;85;21539;-60
2022/02/02 14:33:26;;;;;;;20.68;9.05;;;;;;;10.20;60.41;98348.56;1662987;85;21502;-60
2022/02/02 14:35:57;;;;;;;16.77;8.65;;;;;;;10.14;59.36;98345.84;1659489;85;20972;-61
2022/02/02 14:38:21;;;;;;;16.90;10.08;;;;;;;10.11;59.99;98343.40;1655659;85;21110;-61
2022/02/02 14:41:00;;;;;;;17.77;9.85;;;;;;;10.10;59.70;98345.67;1659673;85;21523;-61
2022/02/02 14:43:26;;;;;;;19.00;9.00;;;;;;;10.03;60.08;98342.56;1659813;85;22335;-60
2022/02/02 14:45:52;;;;;;;17.25;8.70;;;;;;;9.99;60.21;98350.25;1663466;84;21443;-60
2022/02/02 14:48:24;;;;;;;13.88;8.25;;;;;;;9.98;60.56;98355.59;1659989;84;20978;-59
2022/02/02 14:51:37;;;;;;;13.08;8.23;;;;;;;9.98;60.96;98351.17;1656377;84;21483;-59
2022/02/02 14:53:28;;;;;;;14.83;7.58;;;;;;;9.89;60.29;98347.83;1659409;84;21479;-61
2022/02/02 14:56:26;;;;;;;12.78;8.58;;;;;;;9.85;60.42;98351.55;1658751;84;22180;-59
2022/02/02 15:28:15;;;;;;;20.82;10.63;;;;;;;9.37;61.21;98353.55;1642915;84;21538;-61
2022/02/02 15:30:54;;;;;;;22.70;11.65;;;;;;;9.37;60.33;98360.10;1648750;84;21436;-60
2022/02/02 15:33:22;;;;;;;21.00;11.65;;;;;;;9.24;60.08;98352.09;1647204;85;21474;-60
2022/02/02 15:35:47;;;;;;;15.35;10.63;;;;;;;9.27;60.67;98371.13;1637873;86;22283;-60
2022/02/02 15:38:26;;;;;;;19.60;9.10;;;;;;;9.20;60.63;98364.53;1642694;84;21472;-60
2022/02/02 15:40:49;;;;;;;19.85;10.68;;;;;;;9.16;60.23;98370.90;1647153;86;20922;-60
2022/02/02 15:43:25;;;;;;;16.73;10.30;;;;;;;9.09;60.40;98372.17;1643732;84;21463;-60
2022/02/02 16:02:20;;;;;;;15.98;8.05;;;;;;;8.95;60.69;98373.80;1646933;84;22354;-60
2022/02/02 16:04:42;;;;;;;13.10;7.78;;;;;;;8.95;61.14;98365.94;1646344;86;21562;-60
2022/02/02 16:07:18;;;;;;;19.20;9.78;;;;;;;8.95;61.76;98377.73;1651769;84;21533;-60
2022/02/02 16:09:53;;;;;;;18.52;9.03;;;;;;;8.99;60.90;98377.58;1655915;84;21139;-60
2022/02/02 16:12:29;;;;;;;18.60;10.23;;;;;;;8.98;61.04;98380.64;1655590;85;21498;-61
2022/02/02 16:15:56;;;;;;;14.18;8.78;;;;;;;9.06;61.01;98377.58;1654796;85;22269;-59
2022/02/02 16:17:43;;;;;;;16.90;9.83;;;;;;;9.06;61.04;98381.52;1647647;85;21430;-59
2022/02/02 16:36:23;;;;;;;18.12;8.58;;;;;;;8.98;60.88;98392.44;1658681;85;21607;-61
2022/02/02 16:38:59;;;;;;;16.10;8.13;;;;;;;8.90;60.78;98395.48;1668839;85;20974;-60
2022/02/02 16:44:04;;;;;;;20.40;11.83;;;;;;;8.93;61.32;98388.77;1665075;84;21410;-58
2022/02/02 16:46:31;;;;;;;21.65;10.72;;;;;;;9.00;61.00;98390.57;1662083;85;21568;-59
2022/02/02 16:48:58;;;;;;;16.25;9.33;;;;;;;8.94;60.34;98390.45;1667152;85;21515;-59
2022/02/02 16:51:24;;;;;;;17.48;9.25;;;;;;;8.99;60.88;98398.55;1651707;85;21536;-59
2022/02/02 16:53:54;;;;;;;16.67;8.85;;;;;;;9.03;61.05;98396.96;1660179;84;22291;-60
2022/02/02 16:56:56;;;;;;;19.67;9.28;;;;;;;9.05;61.31;98407.37;1664710;85;21408;-59
2022/02/02 17:29:52;;;;;;;20.43;11.30;;;;;;;9.37;59.87;98404.70;1666964;85;21422;-61
2022/02/02 17:34:50;;;;;;;20.12;10.32;;;;;;;9.33;60.68;98389.12;1660823;83;21625;-61
2022/02/02 17:37:42;;;;;;;23.32;11.55;;;;;;;9.38;60.87;98391.95;1667469;84;21063;-62
2022/02/02 17:40:13;;;;;;;16.30;9.00;;;;;;;9.35;60.45;98395.13;1666796;84;21506;-60
2022/02/02 18:13:00;;;;;;;21.85;10.60;;;;;;;9.40;59.94;98392.70;1640508;86;21060;-58
2022/02/02 18:20:39;;;;;;;16.12;9.78;;;;;;;8.86;62.19;98391.36;1727961;80;21502;-59
2022/02/02 18:25:53;;;;;;;19.82;10.60;;;;;;;9.03;61.08;98394.81;1730612;81;21477;-59
2022/02/02 18:36:13;;;;;;;20.27;10.72;;;;;;;9.01;62.43;98401.92;1728972;80;22396;-59
2022/02/02 18:54:11;;;;;;;20.08;10.38;;;;;;;9.04;60.91;98401.73;1745087;80;21540;-59
2022/02/02 19:01:52;;;;;;;20.50;10.53;;;;;;;8.95;60.41;98403.95;1741698;80;22298;-58
2022/02/02 20:07:00;;;;;;;18.90;10.60;;;;;;;9.29;60.67;98428.27;1713955;81;21492;-59
2022/02/02 20:11:44;;;;;;;21.00;12.05;;;;;;;9.27;60.75;98427.98;1724780;81;21523;-59
2022/02/02 20:14:12;;;;;;;22.70;13.40;;;;;;;9.29;61.36;98428.75;1728477;80;21595;-59
2022/02/02 20:16:38;;;;;;;20.92;12.37;;;;;;;9.29;60.43;98433.99;1730342;81;21644;-59
2022/02/02 20:19:08;;;;;;;16.43;9.90;;;;;;;9.30;60.54;98435.67;1719721;81;21538;-59
2022/02/02 20:21:38;;;;;;;21.77;12.33;;;;;;;9.31;60.85;98426.41;1728227;81;22348;-59
2022/02/02 20:24:06;;;;;;;15.98;10.32;;;;;;;9.32;60.88;98429.86;1700767;81;21444;-58
2022/02/02 20:26:35;;;;;;;16.80;9.83;;;;;;;9.38;61.15;98424.73;1716653;81;21407;-59
2022/02/02 20:29:02;;;;;;;15.90;10.55;;;;;;;9.39;60.67;98427.28;1725438;81;21474;-59
2022/02/02 20:31:32;;;;;;;16.90;10.90;;;;;;;9.43;60.78;98425.33;1729551;82;21113;-58
2022/02/02 20:33:59;;;;;;;14.87;9.40;;;;;;;9.35;60.35;98427.91;1721152;82;22342;-57
2022/02/02 20:36:26;;;;;;;16.82;10.32;;;;;;;9.32;61.16;98424.62;1727758;81;21597;-59
2022/02/02 20:38:52;;;;;;;17.30;10.35;;;;;;;9.37;60.98;98433.55;1727760;81;21597;-60
2022/02/02 20:41:19;;;;;;;19.00;10.67;;;;;;;9.42;60.97;98436.30;1728810;81;21557;-60
2022/02/02 20:43:59;;;;;;;15.30;9.80;;;;;;;9.50;61.33;98438.47;1732158;81;21546;-62
2022/02/02 20:46:35;;;;;;;17.10;10.15;;;;;;;9.48;60.83;98436.41;1722540;80;22340;-59
2022/02/02 21:10:29;;;;;;;22.77;13.00;;;;;;;9.47;60.54;98451.76;1728887;81;22555;-60
2022/02/02 21:15:41;;;;;;;17.98;11.28;;;;;;;9.47;60.54;98451.76;1725355;80;21613;-60
2022/02/02 21:18:15;;;;;;;19.55;9.50;;;;;;;9.48;60.55;98460.86;1738086;80;21565;-59
2022/02/02 21:20:48;;;;;;;17.82;11.18;;;;;;;9.47;61.29;98461.77;1740080;80;21442;-59
2022/02/02 21:23:37;;;;;;;19.52;10.00;;;;;;;9.46;60.05;98464.52;1731848;80;21629;-58
2022/02/02 21:25:46;;;;;;;20.27;10.55;;;;;;;9.46;59.96;98457.48;1739480;80;22679;-59
2022/02/02 21:28:09;;;;;;;17.00;9.85;;;;;;;9.39;59.22;98461.86;1736714;80;21555;-58
2022/02/02 21:30:41;;;;;;;15.98;10.90;;;;;;;9.45;61.22;98462.81;1738126;80;20966;-58
2022/02/02 21:33:12;;;;;;;20.25;10.50;;;;;;;9.46;60.55;98464.04;1705745;82;21895;-58
2022/02/02 21:35:36;;;;;;;19.35;11.03;;;;;;;9.43;60.21;98465.98;1698602;82;21555;-60
2022/02/02 21:38:08;;;;;;;18.82;10.08;;;;;;;9.43;59.98;98467.30;1691842;83;22368;-59
2022/02/02 21:40:31;;;;;;;20.88;11.10;;;;;;;9.41;60.59;98470.00;1737108;80;21376;-58
2022/02/02 21:43:00;;;;;;;19.15;10.28;;;;;;;9.30;61.01;98471.91;1730980;80;21580;-59
2022/02/02 21:45:40;;;;;;;15.00;9.68;;;;;;;9.27;59.38;98473.89;1737984;80;21527;-59
2022/02/02 21:48:07;;;;;;;13.60;9.95;;;;;;;9.28;60.43;98473.78;1698415;84;20931;-58
2022/02/02 21:50:48;;;;;;;14.80;10.00;;;;;;;9.34;61.17;98473.91;1696126;82;22326;-58
2022/02/02 21:53:11;;;;;;;;;;;;;;;9.39;60.51;98479.74;1692225;84;20998;-58
2022/02/02 21:55:38;;;;;;;17.12;10.95;;;;;;;9.41;60.20;98490.16;1690533;84;20453;-59
2022/02/02 21:58:05;;;;;;;14.90;10.32;;;;;;;9.33;60.28;98486.18;1698626;84;21527;-58
2022/02/02 22:00:31;;;;;;;18.25;10.95;;;;;;;9.23;60.32;98481.08;1695669;82;21078;-58
2022/02/02 22:02:57;;;;;;;14.45;10.40;;;;;;;9.22;60.56;98488.56;1689605;84;22297;-59
2022/02/02 22:05:24;;;;;;;16.70;10.13;;;;;;;9.15;60.68;98485.45;1690931;84;21551;-59
2022/02/02 22:07:51;;;;;;;18.62;11.10;;;;;;;9.09;60.00;98498.03;1696176;84;21452;-58
2022/02/02 22:10:19;;;;;;;16.17;10.20;;;;;;;9.13;61.00;98491.69;1699661;84;21374;-59
2022/02/02 22:12:45;;;;;;;18.80;9.43;;;;;;;9.16;60.75;98484.97;1712513;82;21384;-59
2022/02/02 22:15:18;;;;;;;18.65;10.23;;;;;;;9.11;60.17;98483.89;1697546;84;22718;-58
2022/02/02 22:17:41;;;;;;;17.57;10.70;;;;;;;9.19;60.83;98488.72;1696601;82;21479;-58
2022/02/02 22:20:11;;;;;;;17.10;10.57;;;;;;;9.20;60.70;98492.20;1700233;82;20974;-56
2022/02/02 22:22:40;;;;;;;21.90;10.78;;;;;;;9.09;60.64;98497.56;1699910;82;21564;-58
2022/02/02 22:25:08;;;;;;;14.43;9.75;;;;;;;9.15;60.88;98502.94;1695843;83;21575;-59
2022/02/02 22:27:35;;;;;;;17.87;10.58;;;;;;;9.19;60.93;98500.52;1699714;84;22276;-59
2022/02/02 22:30:03;;;;;;;18.55;9.80;;;;;;;9.13;60.52;98496.45;1696557;83;21543;-58
2022/02/02 22:32:30;;;;;;;19.15;10.80;;;;;;;9.13;60.60;98502.17;1698493;84;21510;-58
2022/02/02 22:34:56;;;;;;;17.25;11.50;;;;;;;9.12;60.51;98504.44;1699101;84;21516;-57
2022/02/02 22:37:23;;;;;;;15.10;10.63;;;;;;;9.08;60.49;98506.81;1699285;82;21420;-58
2022/02/02 22:39:52;;;;;;;17.60;11.00;;;;;;;9.05;60.41;98505.22;1698673;84;22349;-59
2022/02/02 22:42:20;;;;;;;16.37;10.00;;;;;;;9.12;60.49;98505.74;1699818;84;21306;-59
2022/02/02 22:44:47;;;;;;;18.20;11.28;;;;;;;9.15;60.51;98514.73;1698310;84;21563;-58